Time;durP1;ratioP1;P1;durP2;ratioP2;P2;SDS_P1;SDS_P2;PMS_P1;PMS_P2;Temp;Humidity;BMP_temperature;BMP_pressure;BME280_temperature;BME280_humidity;BME280_pressure;Samples;Min_cycle;Max_cycle;Signal;HPM_P1;HPM_P2
2022/12/31 00:02:07;;;;;;;5.25;2.90;;;;;;;13.05;100.00;99478.06;5032745;28;20032;-70
2022/12/31 00:04:32;;;;;;;4.72;2.70;;;;;;;13.14;100.00;99483.03;5027953;28;20034;-71
2022/12/31 00:06:58;;;;;;;3.92;2.35;;;;;;;13.11;100.00;99494.63;5032989;28;20371;-71
2022/12/31 00:09:23;;;;;;;4.22;2.53;;;;;;;13.16;100.00;99488.78;5029611;28;20029;-70
2022/12/31 00:11:49;;;;;;;3.40;2.33;;;;;;;13.21;100.00;99482.94;5012220;28;20839;-70
2022/12/31 00:14:14;;;;;;;4.30;2.60;;;;;;;13.20;100.00;99498.38;5031001;28;20815;-70
2022/12/31 00:16:41;;;;;;;3.40;2.33;;;;;;;13.20;100.00;99494.94;5033723;28;20049;-70
2022/12/31 00:19:09;;;;;;;4.03;2.80;;;;;;;13.27;100.00;99502.97;5035583;28;20043;-70
2022/12/31 00:21:35;;;;;;;4.30;2.65;;;;;;;13.24;100.00;99512.66;5037073;28;20036;-70
2022/12/31 00:24:03;;;;;;;6.05;3.20;;;;;;;13.23;100.00;99504.94;5023196;28;20044;-70
2022/12/31 00:26:31;;;;;;;4.00;2.75;;;;;;;13.21;100.00;99494.53;5034208;28;20118;-70
2022/12/31 00:28:58;;;;;;;3.45;2.70;;;;;;;13.25;100.00;99502.59;5037406;28;20648;-70
2022/12/31 00:31:27;;;;;;;4.72;2.97;;;;;;;13.28;100.00;99507.97;5050895;28;20021;-70
2022/12/31 00:33:53;;;;;;;4.68;2.92;;;;;;;13.33;100.00;99520.31;5029317;28;20025;-70
2022/12/31 00:36:24;;;;;;;4.22;2.85;;;;;;;13.28;100.00;99513.38;5034300;28;20032;-70
2022/12/31 00:38:52;;;;;;;4.93;2.75;;;;;;;13.24;100.00;99522.72;5032876;28;20456;-72
2022/12/31 00:41:19;;;;;;;6.30;3.08;;;;;;;13.22;100.00;99527.75;5035937;28;20037;-71
2022/12/31 00:43:45;;;;;;;5.53;2.58;;;;;;;13.21;100.00;99537.78;5021534;28;20037;-71
2022/12/31 00:46:11;;;;;;;4.82;2.58;;;;;;;13.25;100.00;99526.94;5030685;28;20040;-71
2022/12/31 00:48:37;;;;;;;3.60;2.38;;;;;;;13.24;100.00;99520.00;5031507;28;20375;-71
2022/12/31 00:51:06;;;;;;;5.00;2.47;;;;;;;13.27;100.00;99527.31;5022224;28;20444;-71
2022/12/31 00:53:32;;;;;;;8.00;2.55;;;;;;;13.20;100.00;99528.13;5045548;28;20037;-71
2022/12/31 00:56:04;;;;;;;5.50;2.50;;;;;;;13.19;100.00;99526.59;5043793;28;20029;-71
2022/12/31 00:58:29;;;;;;;;;;;;;;;13.26;100.00;99531.94;5029852;28;20089;-70
2022/12/31 01:00:55;;;;;;;3.45;2.50;;;;;;;13.27;100.00;99525.38;5043980;28;20630;-70
2022/12/31 01:03:21;;;;;;;3.72;2.28;;;;;;;13.17;100.00;99526.22;5045215;28;20041;-70
2022/12/31 01:05:46;;;;;;;4.50;2.65;;;;;;;13.19;100.00;99532.00;5043259;28;20053;-70
2022/12/31 01:08:12;;;;;;;4.32;2.72;;;;;;;13.28;100.00;99537.72;5022864;28;20628;-70
2022/12/31 01:13:21;;;;;;;4.38;2.58;;;;;;;13.29;100.00;99541.19;5046961;28;20041;-70
2022/12/31 01:15:47;;;;;;;4.63;2.45;;;;;;;13.35;100.00;99543.06;5035449;28;20048;-70
2022/12/31 01:18:12;;;;;;;3.00;1.92;;;;;;;13.43;100.00;99546.47;5031461;28;20040;-70
2022/12/31 01:20:40;;;;;;;3.13;2.35;;;;;;;13.39;100.00;99548.44;5031216;28;20107;-70
2022/12/31 01:23:07;;;;;;;3.53;1.88;;;;;;;13.32;100.00;99545.78;5034064;28;20025;-70
2022/12/31 01:25:42;;;;;;;3.47;2.30;;;;;;;13.33;100.00;99558.16;5034024;28;20043;-71
2022/12/31 01:28:08;;;;;;;4.38;2.42;;;;;;;13.42;100.00;99566.56;5052030;28;20040;-71
2022/12/31 01:30:38;;;;;;;3.30;1.98;;;;;;;13.32;100.00;99567.44;5041622;28;20076;-69
2022/12/31 01:33:03;;;;;;;3.58;2.30;;;;;;;13.47;100.00;99563.44;5039038;28;20073;-69
2022/12/31 01:35:29;;;;;;;3.10;2.00;;;;;;;13.43;100.00;99568.88;5045997;28;20024;-69
2022/12/31 01:37:54;;;;;;;3.42;1.90;;;;;;;13.54;100.00;99571.47;5042785;28;20029;-70
2022/12/31 01:40:20;;;;;;;4.28;2.78;;;;;;;13.46;100.00;99570.00;5043194;28;20123;-70
2022/12/31 01:42:53;;;;;;;6.25;2.10;;;;;;;13.57;100.00;99570.66;5044554;28;20040;-70
2022/12/31 01:45:18;;;;;;;3.28;1.88;;;;;;;13.48;100.00;99565.75;5029785;28;20056;-70
2022/12/31 01:47:48;;;;;;;3.28;2.08;;;;;;;13.56;100.00;99567.22;5022550;28;20065;-71
2022/12/31 01:50:19;;;;;;;3.13;2.00;;;;;;;13.35;100.00;99563.94;5043233;28;20521;-71
2022/12/31 01:52:49;;;;;;;2.75;2.05;;;;;;;13.47;100.00;99574.25;5026987;28;21664;-70
2022/12/31 01:55:30;;;;;;;3.22;2.17;;;;;;;13.52;100.00;99573.81;5035959;28;20052;-70
2022/12/31 01:58:00;;;;;;;2.85;2.08;;;;;;;13.61;100.00;99573.38;5032072;28;20038;-70
2022/12/31 02:00:25;;;;;;;3.97;2.03;;;;;;;13.73;100.00;99565.50;5055174;28;20482;-70
2022/12/31 02:02:51;;;;;;;2.47;1.80;;;;;;;13.78;100.00;99565.03;5025254;28;20029;-70
2022/12/31 02:05:25;;;;;;;3.22;2.08;;;;;;;13.76;100.00;99570.13;5041301;28;20500;-70
2022/12/31 02:07:53;;;;;;;2.88;2.15;;;;;;;13.58;100.00;99561.41;5044642;28;20046;-70
2022/12/31 02:10:18;;;;;;;2.17;1.80;;;;;;;13.54;100.00;99568.78;5043247;28;20017;-70
2022/12/31 02:12:45;;;;;;;4.65;2.90;;;;;;;13.69;100.00;99566.69;5030642;28;20039;-70
2022/12/31 02:15:10;;;;;;;5.68;3.22;;;;;;;13.75;100.00;99565.09;5039900;28;20465;-70
2022/12/31 02:17:45;;;;;;;3.30;2.25;;;;;;;13.69;100.00;99566.69;5042980;28;20040;-71
2022/12/31 02:20:28;;;;;;;4.20;1.88;;;;;;;13.80;100.00;99568.13;5047283;28;20025;-70
2022/12/31 02:23:07;;;;;;;3.22;1.90;;;;;;;13.74;100.00;99561.63;5042419;28;20044;-71
2022/12/31 02:26:03;;;;;;;3.00;1.98;;;;;;;13.78;100.00;99565.03;5025572;28;20037;-70
2022/12/31 02:28:41;;;;;;;3.17;2.00;;;;;;;13.74;100.00;99561.63;5029060;28;20029;-70
2022/12/31 02:31:13;;;;;;;2.83;1.63;;;;;;;13.74;100.00;99561.63;5030827;28;20028;-69
2022/12/31 02:33:55;;;;;;;2.58;1.77;;;;;;;13.78;100.00;99562.34;5031979;28;20037;-70
2022/12/31 02:36:28;;;;;;;2.53;1.80;;;;;;;13.92;100.00;99551.38;5030812;28;20030;-70
2022/12/31 02:38:55;;;;;;;2.55;1.73;;;;;;;13.88;100.00;99558.00;5030758;28;20070;-70
2022/12/31 02:44:24;;;;;;;2.20;1.98;;;;;;;13.72;100.00;99563.97;5020253;28;20033;-71
2022/12/31 02:47:08;;;;;;;2.25;1.60;;;;;;;13.73;100.00;99568.19;5027554;28;20037;-71
2022/12/31 02:49:55;;;;;;;2.22;1.83;;;;;;;13.85;100.00;99551.47;5045546;28;20095;-70
2022/12/31 02:52:58;;;;;;;3.70;2.50;;;;;;;13.83;100.00;99559.22;5029610;28;20029;-70
2022/12/31 02:55:27;;;;;;;3.15;2.13;;;;;;;13.85;100.00;99556.09;5043697;28;20034;-71
2022/12/31 02:57:56;;;;;;;5.28;2.30;;;;;;;13.69;100.00;99548.53;5032027;28;20042;-71
2022/12/31 03:03:06;;;;;;;2.72;2.08;;;;;;;13.89;100.00;99552.19;5028197;28;20112;-71
2022/12/31 03:05:36;;;;;;;3.92;2.10;;;;;;;13.92;100.00;99545.19;5031747;28;20036;-70
2022/12/31 03:08:02;;;;;;;3.60;2.20;;;;;;;13.89;100.00;99549.47;5032021;28;20033;-71
2022/12/31 03:10:27;;;;;;;2.95;2.05;;;;;;;13.73;100.00;99538.44;5030217;28;20021;-70
2022/12/31 03:12:53;;;;;;;2.70;1.90;;;;;;;13.76;100.00;99543.06;5030992;28;20032;-70
2022/12/31 03:15:23;;;;;;;4.18;2.45;;;;;;;13.76;100.00;99550.41;5027220;28;20139;-71
2022/12/31 03:17:50;;;;;;;4.40;2.50;;;;;;;13.73;100.00;99554.66;5030981;28;20053;-70
2022/12/31 03:23:04;;;;;;;3.55;2.58;;;;;;;13.82;100.00;99557.66;5026033;28;20045;-71
2022/12/31 03:25:36;;;;;;;2.67;2.10;;;;;;;13.81;100.00;99574.31;5026329;28;20509;-71
2022/12/31 03:28:05;;;;;;;3.55;1.73;;;;;;;13.83;100.00;99556.50;5026339;28;20091;-71
2022/12/31 03:30:32;;;;;;;4.88;2.15;;;;;;;13.84;100.00;99565.41;5027355;28;20031;-71
2022/12/31 03:32:59;;;;;;;3.10;1.95;;;;;;;13.95;100.00;99560.63;5030695;28;20040;-71
2022/12/31 03:35:26;;;;;;;2.15;1.75;;;;;;;13.96;100.00;99562.16;5030982;28;20529;-71
2022/12/31 03:37:52;;;;;;;2.67;1.92;;;;;;;14.00;100.00;99552.06;5031512;28;20036;-69
2022/12/31 03:40:20;;;;;;;3.13;1.98;;;;;;;14.03;100.00;99556.66;5022198;28;20124;-68
2022/12/31 03:42:45;;;;;;;4.88;1.73;;;;;;;14.03;100.00;99567.50;5027227;28;20048;-68
2022/12/31 03:45:11;;;;;;;2.33;1.88;;;;;;;14.01;100.00;99561.72;5027868;28;20033;-68
2022/12/31 03:47:37;;;;;;;4.82;2.55;;;;;;;14.03;100.00;99562.84;5027295;28;20885;-69
2022/12/31 03:50:05;;;;;;;2.97;1.90;;;;;;;14.08;100.00;99567.03;5031245;28;20034;-71
2022/12/31 03:52:30;;;;;;;3.70;2.08;;;;;;;14.09;100.00;99560.47;5029799;28;20040;-69
2022/12/31 03:54:55;;;;;;;3.15;2.20;;;;;;;14.17;100.00;99554.56;5030693;28;20469;-70
2022/12/31 03:57:22;;;;;;;3.00;1.83;;;;;;;14.21;100.00;99544.44;5013329;28;20039;-70
2022/12/31 03:59:48;;;;;;;4.63;2.17;;;;;;;14.15;100.00;99548.03;5030943;28;20128;-69
2022/12/31 04:02:13;;;;;;;3.80;2.25;;;;;;;14.13;100.00;99567.34;5023551;28;20109;-69
2022/12/31 04:04:39;;;;;;;3.67;2.22;;;;;;;14.09;100.00;99561.22;5028997;28;20041;-70
2022/12/31 04:07:04;;;;;;;3.60;2.30;;;;;;;14.13;100.00;99572.78;5029963;28;20033;-69
2022/12/31 04:09:30;;;;;;;3.60;2.28;;;;;;;14.09;100.00;99571.31;5022983;28;20052;-70
2022/12/31 04:11:55;;;;;;;3.40;2.10;;;;;;;14.17;100.00;99562.69;5024615;28;20029;-69
2022/12/31 04:14:21;;;;;;;3.83;2.45;;;;;;;14.02;100.00;99558.59;5027957;28;20086;-70
2022/12/31 04:16:46;;;;;;;4.40;2.40;;;;;;;14.02;100.00;99574.84;5030762;28;20033;-70
2022/12/31 04:19:12;;;;;;;3.42;2.13;;;;;;;14.08;100.00;99569.75;5024314;28;20040;-70
2022/12/31 04:21:37;;;;;;;4.40;2.25;;;;;;;14.05;100.00;99571.31;5028407;28;20033;-70
2022/12/31 04:24:03;;;;;;;4.57;2.55;;;;;;;14.13;100.00;99578.19;5030445;28;20029;-70
2022/12/31 04:26:29;;;;;;;2.88;2.25;;;;;;;14.00;100.00;99581.81;5031014;28;20033;-70
2022/12/31 04:28:54;;;;;;;2.42;1.58;;;;;;;13.93;100.00;99590.81;5029540;28;20037;-71
2022/12/31 04:31:19;;;;;;;3.50;2.13;;;;;;;13.93;100.00;99588.09;5024383;28;20123;-69
2022/12/31 04:33:45;;;;;;;3.55;2.20;;;;;;;13.94;100.00;99586.91;5028777;28;20033;-69
2022/12/31 04:36:10;;;;;;;2.65;1.98;;;;;;;14.01;100.00;99594.22;5020793;28;20033;-69
2022/12/31 04:38:36;;;;;;;3.35;1.90;;;;;;;14.01;100.00;99600.41;5029068;28;20048;-69
2022/12/31 04:41:17;;;;;;;2.42;1.83;;;;;;;14.07;100.00;99606.88;5025026;28;20025;-69
2022/12/31 04:43:45;;;;;;;4.78;2.00;;;;;;;14.07;100.00;99606.13;5027587;28;20037;-69
2022/12/31 04:46:12;;;;;;;3.00;2.08;;;;;;;13.98;100.00;99601.19;5036665;28;20037;-70
2022/12/31 04:48:37;;;;;;;2.22;1.55;;;;;;;14.03;100.00;99610.81;5027070;28;20083;-69
2022/12/31 04:51:03;;;;;;;4.63;1.83;;;;;;;13.97;100.00;99596.19;5026630;28;20033;-69
2022/12/31 04:53:29;;;;;;;3.38;1.85;;;;;;;14.00;100.00;99606.97;5030396;28;20048;-69
2022/12/31 04:55:54;;;;;;;2.58;1.90;;;;;;;14.02;100.00;99612.75;5028542;28;20129;-69
2022/12/31 04:58:20;;;;;;;2.60;1.80;;;;;;;14.05;100.00;99603.06;5041790;28;20084;-70
2022/12/31 05:00:50;;;;;;;2.13;1.42;;;;;;;14.04;100.00;99604.22;5028580;28;20042;-70
2022/12/31 05:03:17;;;;;;;5.57;2.40;;;;;;;14.07;100.00;99601.47;5026600;28;20061;-69
2022/12/31 05:06:03;;;;;;;4.20;1.50;;;;;;;14.15;100.00;99596.75;5028695;28;20374;-69
2022/12/31 05:08:29;;;;;;;3.20;1.63;;;;;;;14.11;100.00;99580.53;4973465;28;20459;-70
2022/12/31 05:10:55;;;;;;;2.67;1.67;;;;;;;14.19;100.00;99579.28;4977397;28;20061;-69
2022/12/31 05:13:22;;;;;;;5.22;1.90;;;;;;;14.13;100.00;99594.44;4952928;28;20043;-69
2022/12/31 05:15:47;;;;;;;2.50;1.63;;;;;;;14.11;100.00;99594.06;4966120;28;20579;-69
2022/12/31 05:18:13;;;;;;;2.00;1.38;;;;;;;14.13;100.00;99599.84;4966480;28;20121;-69
2022/12/31 05:20:38;;;;;;;2.28;1.63;;;;;;;13.92;100.00;99597.38;4961074;28;20051;-70
2022/12/31 05:23:04;;;;;;;2.20;1.33;;;;;;;13.97;100.00;99580.72;4968822;28;20031;-69
2022/12/31 05:25:29;;;;;;;1.65;1.10;;;;;;;13.87;100.00;99578.13;4962564;28;20422;-69
2022/12/31 05:27:55;;;;;;;2.45;1.33;;;;;;;13.92;100.00;99573.03;4974865;28;20039;-69
2022/12/31 05:30:22;;;;;;;1.20;1.08;;;;;;;13.97;100.00;99569.13;4983393;28;20045;-70
2022/12/31 05:32:47;;;;;;;2.10;1.33;;;;;;;13.99;100.00;99550.53;4983774;28;20482;-69
2022/12/31 05:35:13;;;;;;;2.08;1.13;;;;;;;13.96;100.00;99549.38;4982025;28;20042;-71
2022/12/31 05:37:38;;;;;;;2.60;1.30;;;;;;;13.82;100.00;99549.53;4963351;28;20039;-71
2022/12/31 05:40:05;;;;;;;3.63;1.63;;;;;;;13.91;100.00;99543.66;4979067;28;20054;-69
2022/12/31 05:42:30;;;;;;;2.80;1.60;;;;;;;13.89;100.00;99527.81;4977729;28;20045;-69
2022/12/31 05:44:56;;;;;;;2.03;1.30;;;;;;;14.03;100.00;99532.31;4980887;28;20045;-69
2022/12/31 05:47:21;;;;;;;1.95;1.58;;;;;;;13.96;100.00;99541.28;5032113;28;20025;-72
2022/12/31 05:49:47;;;;;;;2.35;1.35;;;;;;;13.77;100.00;99544.59;5032769;28;20045;-69
2022/12/31 05:52:12;;;;;;;5.47;1.80;;;;;;;13.72;100.00;99558.56;5033620;28;20037;-69
2022/12/31 05:54:38;;;;;;;1.65;1.20;;;;;;;13.84;100.00;99574.25;5031485;28;20048;-69
2022/12/31 05:57:04;;;;;;;1.60;1.38;;;;;;;13.79;100.00;99580.13;5033728;28;20109;-70
2022/12/31 05:59:30;;;;;;;3.25;1.23;;;;;;;13.87;100.00;99592.41;5033303;28;20075;-70
2022/12/31 06:01:55;;;;;;;1.30;1.10;;;;;;;13.66;100.00;99598.03;5029084;28;20068;-70
2022/12/31 06:04:21;;;;;;;1.60;1.20;;;;;;;13.79;100.00;99598.28;5032118;28;20033;-69
2022/12/31 06:06:47;;;;;;;1.30;1.15;;;;;;;13.75;100.00;99597.56;5032507;28;20041;-69
2022/12/31 06:09:13;;;;;;;0.90;0.80;;;;;;;13.84;100.00;99601.31;5032757;28;20060;-69
2022/12/31 06:11:39;;;;;;;1.55;0.70;;;;;;;13.81;100.00;99604.06;5028550;28;20041;-70
2022/12/31 06:14:04;;;;;;;0.80;0.70;;;;;;;13.80;100.00;99602.56;5032539;28;20030;-71
2022/12/31 06:16:30;;;;;;;0.70;0.70;;;;;;;13.79;100.00;99609.13;5031755;28;20030;-70
2022/12/31 06:18:55;;;;;;;1.58;1.05;;;;;;;13.90;100.00;99597.00;5029998;28;20033;-71
2022/12/31 06:21:21;;;;;;;0.80;0.70;;;;;;;13.78;100.00;99619.16;5032330;28;20052;-70
2022/12/31 06:23:47;;;;;;;1.00;0.70;;;;;;;13.83;100.00;99629.56;5033614;28;20034;-70
2022/12/31 06:26:14;;;;;;;0.93;0.68;;;;;;;13.82;100.00;99629.97;5044220;28;20047;-71
2022/12/31 06:28:39;;;;;;;0.50;0.50;;;;;;;13.77;100.00;99636.59;5041472;28;20044;-69
2022/12/31 06:31:07;;;;;;;0.80;0.68;;;;;;;13.55;100.00;99630.59;5037546;28;20029;-72
2022/12/31 06:33:34;;;;;;;1.30;0.55;;;;;;;13.72;100.00;99634.31;5038934;28;20029;-70
2022/12/31 06:36:04;;;;;;;1.48;0.63;;;;;;;13.69;100.00;99640.53;5031417;28;20168;-69
2022/12/31 06:38:32;;;;;;;0.70;0.50;;;;;;;13.63;100.00;99641.38;5025222;28;20040;-70
2022/12/31 06:41:02;;;;;;;0.47;0.47;;;;;;;13.70;100.00;99647.50;5032029;28;20029;-70
2022/12/31 06:43:27;;;;;;;1.17;0.50;;;;;;;13.82;100.00;99633.44;5032836;28;20155;-70
2022/12/31 06:45:53;;;;;;;0.47;0.45;;;;;;;13.80;100.00;99635.78;5035425;28;20125;-69
2022/12/31 06:48:18;;;;;;;1.27;0.55;;;;;;;13.67;100.00;99644.78;5038694;28;20168;-72
2022/12/31 06:50:43;;;;;;;0.50;0.50;;;;;;;13.74;100.00;99623.09;5038986;28;20040;-69
2022/12/31 06:53:10;;;;;;;0.30;0.30;;;;;;;13.69;100.00;99635.09;5038943;28;20033;-69
2022/12/31 06:55:36;;;;;;;0.45;0.45;;;;;;;13.66;100.00;99641.34;5032023;28;20487;-69
2022/12/31 06:58:01;;;;;;;1.00;0.40;;;;;;;13.56;100.00;99629.44;5031604;28;20037;-69
2022/12/31 07:00:29;;;;;;;0.38;0.30;;;;;;;13.59;100.00;99625.16;5028058;28;20072;-73
2022/12/31 07:03:06;;;;;;;0.10;0.10;;;;;;;13.58;100.00;99634.44;5032540;28;20033;-70
2022/12/31 07:05:46;;;;;;;0.60;0.30;;;;;;;13.49;100.00;99624.06;5027220;28;20108;-69
2022/12/31 07:08:47;;;;;;;1.60;0.45;;;;;;;13.55;100.00;99608.19;5025900;28;20490;-69
2022/12/31 07:11:13;;;;;;;;;;;;;;;13.46;100.00;99605.16;5014021;28;20167;-69
2022/12/31 07:13:58;;;;;;;0.60;0.30;;;;;;;13.40;100.00;99606.75;5032036;28;20005;-71
2022/12/31 07:16:38;;;;;;;1.13;0.30;;;;;;;13.43;100.00;99614.09;5031762;28;20104;-69
2022/12/31 07:19:06;;;;;;;0.15;0.15;;;;;;;13.27;100.00;99616.53;5036614;28;20037;-70
2022/12/31 07:21:37;;;;;;;0.80;0.40;;;;;;;13.15;100.00;99620.47;5035611;28;20033;-69
2022/12/31 07:24:08;;;;;;;0.20;0.20;;;;;;;13.00;100.00;99624.41;5038218;28;20544;-70
2022/12/31 07:26:43;;;;;;;0.20;0.20;;;;;;;13.09;100.00;99641.00;5031361;28;20065;-70
2022/12/31 07:29:15;;;;;;;3.60;0.40;;;;;;;13.15;100.00;99655.63;5019600;28;20685;-71
2022/12/31 07:32:18;;;;;;;0.47;0.47;;;;;;;13.17;100.00;99666.03;5059991;28;20036;-70
2022/12/31 07:34:49;;;;;;;0.15;0.10;;;;;;;13.21;100.00;99654.03;5026947;28;20104;-72
2022/12/31 07:37:28;;;;;;;;;;;;;;;13.19;100.00;99647.50;5031279;28;20471;-71
2022/12/31 07:39:57;;;;;;;0.20;0.20;;;;;;;13.22;100.00;99639.34;5030323;28;19924;-70
2022/12/31 07:42:31;;;;;;;0.30;0.30;;;;;;;13.28;100.00;99647.81;5029846;28;20095;-70
2022/12/31 07:45:16;;;;;;;0.22;0.22;;;;;;;13.32;100.00;99653.94;5032194;28;20029;-69
2022/12/31 07:47:44;;;;;;;0.35;0.20;;;;;;;13.37;100.00;99654.31;5030476;28;20111;-71
2022/12/31 07:50:15;;;;;;;0.30;0.30;;;;;;;13.25;100.00;99660.19;5030282;28;20022;-71
2022/12/31 07:52:42;;;;;;;0.77;0.25;;;;;;;13.13;100.00;99652.53;5024024;28;20037;-71
2022/12/31 07:55:07;;;;;;;0.60;0.30;;;;;;;13.31;100.00;99647.78;5028441;28;20068;-71
2022/12/31 07:57:45;;;;;;;0.30;0.30;;;;;;;13.37;100.00;99650.84;5028189;28;20060;-71
2022/12/31 08:00:13;;;;;;;0.30;0.30;;;;;;;13.41;100.00;99651.59;5029132;28;20469;-71
2022/12/31 08:03:04;;;;;;;0.22;0.22;;;;;;;13.51;100.00;99665.00;5025595;28;20364;-71
2022/12/31 08:05:45;;;;;;;0.45;0.40;;;;;;;13.46;100.00;99664.69;5033309;28;20446;-71
2022/12/31 08:08:23;;;;;;;2.13;0.35;;;;;;;13.19;100.00;99650.19;5045254;28;20025;-72
2022/12/31 08:11:10;;;;;;;0.30;0.30;;;;;;;13.17;100.00;99645.19;5030593;28;20048;-71
2022/12/31 08:13:36;;;;;;;0.30;0.30;;;;;;;13.30;100.00;99653.59;5021558;28;20041;-71
2022/12/31 08:16:02;;;;;;;4.38;0.20;;;;;;;13.24;100.00;99666.75;5031366;28;20036;-72
2022/12/31 08:18:28;;;;;;;0.32;0.32;;;;;;;13.26;100.00;99656.31;5030460;28;20390;-71
2022/12/31 08:20:53;;;;;;;0.35;0.30;;;;;;;13.37;100.00;99650.84;5030400;28;20042;-71
2022/12/31 08:23:50;;;;;;;0.35;0.35;;;;;;;13.31;100.00;99647.03;5028884;28;20037;-71
2022/12/31 08:26:22;;;;;;;0.50;0.50;;;;;;;13.50;100.00;99651.91;5029760;28;20033;-71
2022/12/31 08:29:03;;;;;;;0.40;0.40;;;;;;;13.38;100.00;99655.84;5036800;28;20030;-71
2022/12/31 08:31:39;;;;;;;0.40;0.30;;;;;;;13.35;100.00;99650.47;5032519;28;20044;-71
2022/12/31 08:34:34;;;;;;;0.35;0.35;;;;;;;13.43;100.00;99638.44;5029888;28;20039;-71
2022/12/31 08:37:12;;;;;;;0.47;0.30;;;;;;;13.49;100.00;99643.00;5037851;28;20064;-71
2022/12/31 08:39:52;;;;;;;0.95;0.32;;;;;;;13.51;100.00;99653.44;5027443;28;20442;-70
2022/12/31 08:42:41;;;;;;;0.30;0.30;;;;;;;13.66;100.00;99637.84;5023027;28;20029;-71
2022/12/31 08:45:27;;;;;;;0.50;0.50;;;;;;;13.69;100.00;99643.22;5028954;28;20120;-70
2022/12/31 08:48:14;;;;;;;1.08;0.63;;;;;;;13.73;100.00;99657.50;5027138;28;20045;-71
2022/12/31 08:50:40;;;;;;;1.17;0.70;;;;;;;13.68;100.00;99665.28;5040667;28;20065;-71
2022/12/31 08:53:06;;;;;;;1.20;0.80;;;;;;;13.65;100.00;99668.78;5029754;28;20107;-71
2022/12/31 08:55:32;;;;;;;1.10;0.65;;;;;;;13.57;100.00;99654.53;5028484;28;20091;-71
2022/12/31 08:58:19;;;;;;;0.70;0.65;;;;;;;13.41;100.00;99652.34;5028398;28;20124;-70
2022/12/31 09:00:48;;;;;;;0.68;0.68;;;;;;;13.47;100.00;99652.69;5044895;28;20119;-70
2022/12/31 09:03:32;;;;;;;1.05;0.68;;;;;;;13.33;100.00;99650.09;5030127;28;20402;-70
2022/12/31 09:06:23;;;;;;;0.70;0.70;;;;;;;13.44;100.00;99648.06;5031635;28;20031;-71
2022/12/31 09:09:08;;;;;;;0.75;0.75;;;;;;;13.60;100.00;99656.47;5032406;28;20037;-71
2022/12/31 09:11:36;;;;;;;1.08;0.77;;;;;;;13.61;100.00;99652.56;5028572;28;20034;-71
2022/12/31 09:14:29;;;;;;;3.72;0.70;;;;;;;13.57;100.00;99647.19;5024172;28;20068;-71
2022/12/31 09:17:22;;;;;;;1.40;0.70;;;;;;;13.33;100.00;99647.41;5030642;28;20057;-71
2022/12/31 09:19:48;;;;;;;1.48;0.88;;;;;;;13.38;100.00;99663.19;5031584;28;20041;-71
2022/12/31 09:22:14;;;;;;;1.23;0.70;;;;;;;13.48;100.00;99648.81;5034072;28;20601;-71
2022/12/31 09:24:39;;;;;;;2.35;1.00;;;;;;;13.46;100.00;99649.22;5033230;28;20025;-71
2022/12/31 09:27:05;;;;;;;1.40;0.70;;;;;;;13.49;100.00;99653.06;5034580;28;20454;-71
2022/12/31 09:29:54;;;;;;;2.35;1.20;;;;;;;13.32;100.00;99648.53;5029333;28;20109;-71
2022/12/31 09:32:36;;;;;;;2.03;0.90;;;;;;;13.18;100.00;99673.75;5034254;28;20045;-71
2022/12/31 09:35:25;;;;;;;0.80;0.60;;;;;;;13.30;100.00;99667.88;5027799;28;20032;-71
2022/12/31 09:38:13;;;;;;;1.35;0.93;;;;;;;13.20;100.00;99668.72;5033288;28;20037;-71
2022/12/31 09:40:54;;;;;;;0.90;0.70;;;;;;;13.26;100.00;99679.88;5031233;28;20045;-71
2022/12/31 09:43:23;;;;;;;1.95;0.75;;;;;;;13.44;100.00;99672.41;5045329;28;20037;-71
2022/12/31 09:46:32;;;;;;;1.38;0.70;;;;;;;13.54;100.00;99677.00;5048272;28;20045;-71
2022/12/31 09:49:22;;;;;;;0.85;0.80;;;;;;;13.71;100.00;99672.59;5025523;28;20041;-71
2022/12/31 09:51:50;;;;;;;0.95;0.70;;;;;;;13.67;100.00;99667.22;5032643;28;20395;-70
2022/12/31 09:54:38;;;;;;;0.73;0.68;;;;;;;13.67;100.00;99661.03;5038792;28;20037;-70
2022/12/31 09:57:21;;;;;;;1.00;0.88;;;;;;;13.82;100.00;99667.88;5031463;28;20628;-71
2022/12/31 10:00:03;;;;;;;1.48;0.80;;;;;;;13.74;100.00;99679.91;5045259;28;20064;-70
2022/12/31 10:03:02;;;;;;;0.80;0.65;;;;;;;13.73;100.00;99684.56;5035682;28;20473;-71
2022/12/31 10:06:00;;;;;;;0.40;0.40;;;;;;;13.76;100.00;99683.78;5036530;28;20038;-71
2022/12/31 10:08:45;;;;;;;0.70;0.60;;;;;;;13.80;100.00;99670.97;5030823;28;20045;-69
2022/12/31 10:11:51;;;;;;;0.77;0.60;;;;;;;13.75;100.00;99679.50;5032398;28;20030;-70
2022/12/31 10:14:19;;;;;;;0.50;0.50;;;;;;;13.84;100.00;99662.81;5033812;28;20512;-69
2022/12/31 10:17:13;;;;;;;0.60;0.60;;;;;;;13.68;100.00;99655.22;5033802;28;20072;-70
2022/12/31 10:19:53;;;;;;;0.57;0.57;;;;;;;13.42;100.00;99659.31;5033725;28;20041;-70
2022/12/31 10:22:48;;;;;;;0.57;0.40;;;;;;;13.57;100.00;99670.75;5033485;28;20041;-69
2022/12/31 10:25:13;;;;;;;0.70;0.52;;;;;;;13.64;100.00;99670.72;5032276;28;20439;-69
2022/12/31 10:28:04;;;;;;;0.77;0.70;;;;;;;13.74;100.00;99658.28;5032355;28;20047;-70
2022/12/31 10:30:34;;;;;;;1.10;0.60;;;;;;;13.83;100.00;99662.06;5031592;28;20038;-70
2022/12/31 10:33:15;;;;;;;0.75;0.68;;;;;;;13.67;100.00;99637.44;5032959;28;20041;-70
2022/12/31 10:35:57;;;;;;;2.05;0.60;;;;;;;13.69;100.00;99637.81;5035449;28;20037;-70
2022/12/31 10:38:48;;;;;;;1.15;0.80;;;;;;;13.78;100.00;99637.38;5033299;28;20033;-70
2022/12/31 10:41:19;;;;;;;0.50;0.50;;;;;;;13.87;100.00;99624.13;5048510;28;20037;-70
2022/12/31 10:43:48;;;;;;;;;;;;;;;13.87;100.00;99622.19;5043611;28;20044;-69
2022/12/31 10:46:32;;;;;;;0.50;0.50;;;;;;;13.94;100.00;99630.22;5040042;28;19913;-69
2022/12/31 10:49:16;;;;;;;1.95;0.40;;;;;;;13.78;100.00;99621.13;5044226;28;20112;-69
2022/12/31 10:52:04;;;;;;;0.30;0.28;;;;;;;13.82;100.00;99621.88;5038635;28;20040;-69
2022/12/31 10:54:35;;;;;;;0.47;0.38;;;;;;;13.90;100.00;99640.31;5035776;28;20037;-70
2022/12/31 10:57:18;;;;;;;0.90;0.40;;;;;;;13.90;100.00;99632.19;5036948;28;20041;-71
2022/12/31 10:59:57;;;;;;;0.20;0.20;;;;;;;13.97;100.00;99639.50;5032477;28;20087;-69
2022/12/31 11:02:44;;;;;;;0.65;0.40;;;;;;;13.94;100.00;99630.22;5027356;28;20064;-71
2022/12/31 11:05:43;;;;;;;0.30;0.30;;;;;;;13.92;100.00;99643.41;5028917;28;20028;-70
2022/12/31 11:08:36;;;;;;;0.22;0.17;;;;;;;14.00;100.00;99639.44;5038600;28;20040;-71
2022/12/31 11:11:16;;;;;;;0.22;0.22;;;;;;;13.99;100.00;99637.16;5039228;28;20128;-71
2022/12/31 11:14:03;;;;;;;0.20;0.20;;;;;;;14.03;100.00;99633.22;5043569;28;20040;-72
2022/12/31 11:16:42;;;;;;;1.00;0.20;;;;;;;14.02;100.00;99631.69;5043933;28;20146;-72
2022/12/31 11:19:20;;;;;;;0.55;0.32;;;;;;;14.22;100.00;99640.78;5030052;28;20125;-72
2022/12/31 11:22:11;;;;;;;0.20;0.20;;;;;;;14.16;100.00;99634.25;5031089;28;20402;-72
2022/12/31 11:24:57;;;;;;;0.55;0.30;;;;;;;14.30;100.00;99634.13;5011383;28;20037;-72
2022/12/31 11:27:36;;;;;;;0.20;0.20;;;;;;;14.14;100.00;99644.72;5030558;28;20041;-73
2022/12/31 11:30:20;;;;;;;0.30;0.30;;;;;;;14.13;100.00;99662.13;5032951;28;20462;-72
2022/12/31 11:33:15;;;;;;;1.10;0.60;;;;;;;14.36;100.00;99666.97;5035235;28;20041;-72
2022/12/31 11:36:18;;;;;;;0.40;0.30;;;;;;;14.45;100.00;99664.53;5045389;28;20065;-71
2022/12/31 11:38:51;;;;;;;0.73;0.50;;;;;;;14.52;100.00;99655.56;5034582;28;20072;-72
2022/12/31 11:41:47;;;;;;;0.47;0.38;;;;;;;14.52;100.00;99669.84;5037078;28;20052;-72
2022/12/31 11:44:31;;;;;;;2.65;0.93;;;;;;;14.57;100.00;99664.00;5035691;28;20034;-71
2022/12/31 11:47:21;;;;;;;2.35;0.70;;;;;;;14.66;100.00;99664.28;5043058;28;20040;-71
2022/12/31 11:50:24;;;;;;;0.68;0.40;;;;;;;14.66;100.00;99677.81;5032928;28;20494;-71
2022/12/31 11:53:13;;;;;;;0.88;0.25;;;;;;;14.71;100.00;99671.94;5042720;28;20049;-72
2022/12/31 11:56:09;;;;;;;0.32;0.30;;;;;;;14.59;100.00;99677.16;5028123;28;20056;-69
2022/12/31 11:58:35;;;;;;;0.93;0.40;;;;;;;14.63;100.00;99670.53;5036323;28;20406;-70
2022/12/31 12:01:09;;;;;;;0.40;0.32;;;;;;;14.70;100.00;99670.41;5015305;28;20041;-69
2022/12/31 12:03:41;;;;;;;0.50;0.50;;;;;;;14.95;100.00;99660.03;5027548;28;20072;-70
2022/12/31 12:06:22;;;;;;;0.30;0.22;;;;;;;14.83;100.00;99668.69;5039799;28;20375;-71